Gondar, Ethiopia
Current Conditions -  °F | °C
As of 7:00 PM on Friday 28 Nov 2014 (Local Time) from HSSS Reporting Station
Clear Clear  
Wind Chill: 82°   Ceiling: Unl
Heat Index: 82°   Visibility: 6mi
Dew Point: 37°   Wind: 12mph
Humidity: 20%   Direction: 350°N
Pressure: 29.94"   Gusts: NA
Location:  12.61°N, 37.46°E
Report Text: HSSS 281600Z 35010KT CAVOK 28/03 Q1014 NOSIG
Loading
Personal Weather Stations






























Interactive Weather Map New forecast layout! Learn more

10-Day Weather Forecast

Advertisements
Track Severe Weather on mobile